createdAt,value
2019-02-03T00:01:32.175Z,37.93
2019-02-03T00:04:00.698Z,39.00
2019-02-03T00:06:29.223Z,41.77
2019-02-03T00:08:58.155Z,40.30
2019-02-03T00:11:26.682Z,43.87
2019-02-03T00:13:55.141Z,42.83
2019-02-03T00:16:23.641Z,45.10
2019-02-03T00:18:52.103Z,46.60
2019-02-03T00:21:20.536Z,46.17
2019-02-03T00:23:49.374Z,47.40
2019-02-03T00:26:17.985Z,47.57
2019-02-03T00:28:46.768Z,48.47
2019-02-03T00:31:15.255Z,47.73
2019-02-03T00:33:43.776Z,47.30
2019-02-03T00:36:12.229Z,46.17
2019-02-03T00:38:40.764Z,45.97
2019-02-03T00:41:09.304Z,47.40
2019-02-03T00:43:37.887Z,46.77
2019-02-03T00:46:06.719Z,44.90
2019-02-03T00:48:35.227Z,42.97
2019-02-03T00:51:04.572Z,47.17
2019-02-03T00:53:33.084Z,42.07
2019-02-03T00:56:20.964Z,41.90
2019-02-03T00:58:49.491Z,40.20
2019-02-03T01:01:18.014Z,42.97
2019-02-03T01:03:46.523Z,39.40
2019-02-03T01:06:15.017Z,40.80
2019-02-03T01:08:45.815Z,43.07
2019-02-03T01:11:14.263Z,41.93
2019-02-03T01:13:42.739Z,42.80
2019-02-03T01:16:11.528Z,40.70
2019-02-03T01:18:39.987Z,39.20
2019-02-03T01:21:08.425Z,38.07
2019-02-03T01:23:56.215Z,36.90
2019-02-03T01:26:24.899Z,37.23
2019-02-03T01:28:53.611Z,39.00
2019-02-03T01:31:22.059Z,38.07
2019-02-03T01:34:09.852Z,35.60
2019-02-03T01:36:38.290Z,35.50
2019-02-03T01:39:08.797Z,36.57
2019-02-03T01:41:37.314Z,36.23
2019-02-03T01:44:05.910Z,37.27
2019-02-03T01:46:34.423Z,35.80
2019-02-03T01:49:02.884Z,38.17
2019-02-03T01:51:31.695Z,36.67
2019-02-03T01:54:00.806Z,36.80
2019-02-03T01:56:29.324Z,37.80
2019-02-03T01:58:57.786Z,37.97
2019-02-03T02:01:26.322Z,35.60
2019-02-03T02:03:54.854Z,38.77
2019-02-03T02:06:23.684Z,38.87
2019-02-03T02:08:52.200Z,38.57
2019-02-03T02:11:20.718Z,39.43
2019-02-03T02:13:49.222Z,39.40
2019-02-03T02:16:17.698Z,38.90
2019-02-03T02:18:46.147Z,40.00
2019-02-03T02:21:14.955Z,40.43
2019-02-03T02:23:43.390Z,41.00
2019-02-03T02:26:11.895Z,39.80
2019-02-03T02:28:40.372Z,39.70
2019-02-03T02:31:10.917Z,40.30
2019-02-03T02:33:39.376Z,39.90
2019-02-03T02:36:08.088Z,42.20
2019-02-03T02:38:42.403Z,41.20
2019-02-03T02:41:10.851Z,38.37
2019-02-03T02:43:39.325Z,41.03
2019-02-03T02:46:07.899Z,41.80
2019-02-03T02:48:36.372Z,40.80
2019-02-03T02:51:04.871Z,37.47
2019-02-03T02:53:33.325Z,39.90
2019-02-03T02:56:10.572Z,37.43
2019-02-03T02:58:39.984Z,36.40
2019-02-03T03:01:08.562Z,39.90
2019-02-03T03:03:44.024Z,39.03
2019-02-03T03:06:12.538Z,39.17
2019-02-03T03:08:41.055Z,40.10
2019-02-03T03:11:28.836Z,38.00
2019-02-03T03:13:57.286Z,38.47
2019-02-03T03:16:27.812Z,36.63
2019-02-03T03:18:56.336Z,38.00
2019-02-03T03:21:24.779Z,40.70
2019-02-03T03:23:53.312Z,45.20
2019-02-03T03:26:21.943Z,45.17
2019-02-03T03:28:50.539Z,48.00
2019-02-03T03:31:25.778Z,49.07
2019-02-03T03:33:54.232Z,48.60
2019-02-03T03:36:22.676Z,50.67
2019-02-03T03:38:51.549Z,53.77
2019-02-03T03:41:20.072Z,50.20
2019-02-03T03:43:48.639Z,50.00
2019-02-03T03:46:17.082Z,49.47
2019-02-03T03:48:45.534Z,49.43
2019-02-03T03:51:14.145Z,45.63
2019-02-03T03:53:42.888Z,51.30
2019-02-03T03:56:11.322Z,50.67
2019-02-03T03:58:59.286Z,49.43
2019-02-03T04:01:27.724Z,49.77
2019-02-03T04:03:56.727Z,46.47
2019-02-03T04:06:25.208Z,49.20
2019-02-03T04:08:53.723Z,51.40
2019-02-03T04:11:22.319Z,49.97
2019-02-03T04:13:50.824Z,49.20
2019-02-03T04:16:19.281Z,51.10
2019-02-03T04:18:48.174Z,48.90
2019-02-03T04:21:16.699Z,51.40
2019-02-03T04:23:45.135Z,49.87
2019-02-03T04:26:13.766Z,49.33
2019-02-03T04:28:42.266Z,47.80
2019-02-03T04:31:30.056Z,47.93
2019-02-03T04:33:58.492Z,47.73
2019-02-03T04:36:26.957Z,48.10
2019-02-03T04:38:58.373Z,48.27
2019-02-03T04:41:25.652Z,49.13
2019-02-03T04:43:54.585Z,48.27
2019-02-03T04:46:23.043Z,46.77
2019-02-03T04:48:51.488Z,49.30
2019-02-03T04:51:19.995Z,46.57
2019-02-03T04:53:48.449Z,44.80
2019-02-03T04:56:16.891Z,46.80
2019-02-03T04:58:45.623Z,45.10
2019-02-03T05:01:14.069Z,45.77
2019-02-03T05:03:42.596Z,45.97
2019-02-03T05:06:11.038Z,45.60
2019-02-03T05:08:39.561Z,44.13
2019-02-03T05:11:08.170Z,44.20
2019-02-03T05:13:37.018Z,46.20
2019-02-03T05:16:05.592Z,45.20
2019-02-03T05:18:34.048Z,46.97
2019-02-03T05:21:02.562Z,44.07
2019-02-03T05:23:31.106Z,46.27
2019-02-03T05:25:59.613Z,46.07
2019-02-03T05:28:28.570Z,44.80
2019-02-03T05:30:57.074Z,45.57
2019-02-03T05:33:25.544Z,43.63
2019-02-03T05:35:53.987Z,45.70
2019-02-03T05:38:22.441Z,47.30
2019-02-03T05:40:50.909Z,45.30
2019-02-03T05:43:20.171Z,44.47
2019-02-03T05:45:48.634Z,44.67
2019-02-03T05:48:17.220Z,45.23
2019-02-03T05:50:45.668Z,44.87
2019-02-03T05:53:14.117Z,49.83
2019-02-03T05:55:42.653Z,48.30
2019-02-03T05:58:11.468Z,46.83
2019-02-03T06:00:40.704Z,47.07
2019-02-03T06:03:09.219Z,47.53
2019-02-03T06:05:37.684Z,44.77
2019-02-03T06:08:06.260Z,46.87
2019-02-03T06:10:34.716Z,49.20
2019-02-03T06:13:03.167Z,44.77
2019-02-03T06:15:31.961Z,48.07
2019-02-03T06:18:00.474Z,46.10
2019-02-03T06:20:28.939Z,46.30
2019-02-03T06:22:57.372Z,46.10
2019-02-03T06:25:25.897Z,47.30
2019-02-03T06:27:54.464Z,49.00
2019-02-03T06:30:26.128Z,46.37
2019-02-03T06:32:54.676Z,48.43
2019-02-03T06:35:23.175Z,46.87
2019-02-03T06:37:51.612Z,46.43
2019-02-03T06:40:20.528Z,46.77
2019-02-03T06:42:48.981Z,48.97
2019-02-03T06:45:19.092Z,49.50
2019-02-03T06:47:47.614Z,46.63
2019-02-03T06:50:16.052Z,43.50
2019-02-03T06:52:44.601Z,44.90
2019-02-03T06:55:13.482Z,42.87
2019-02-03T06:57:41.931Z,41.47
2019-02-03T07:00:13.131Z,43.17
2019-02-03T07:02:41.652Z,41.23
2019-02-03T07:05:10.396Z,41.83
2019-02-03T07:07:39.021Z,43.27
2019-02-03T07:10:11.977Z,44.70
2019-02-03T07:12:40.503Z,41.90
2019-02-03T07:15:10.855Z,41.73
2019-02-03T07:17:39.325Z,41.77
2019-02-03T07:20:15.561Z,40.80
2019-02-03T07:22:44.011Z,43.60
2019-02-03T07:25:12.892Z,46.40
2019-02-03T07:27:41.364Z,44.13
2019-02-03T07:30:18.529Z,43.97
2019-02-03T07:32:47.072Z,40.93
2019-02-03T07:35:15.663Z,45.80
2019-02-03T07:37:44.242Z,45.70
2019-02-03T07:40:20.960Z,43.17
2019-02-03T07:42:49.404Z,47.37
2019-02-03T07:45:17.918Z,47.00
2019-02-03T07:48:05.967Z,41.13
2019-02-03T07:50:34.568Z,42.87
2019-02-03T07:53:03.073Z,41.93
2019-02-03T07:55:31.527Z,41.07
2019-02-03T07:58:00.360Z,41.13
2019-02-03T08:00:28.893Z,39.57
2019-02-03T08:02:58.386Z,37.17
2019-02-03T08:05:26.928Z,41.33
2019-02-03T08:07:55.439Z,42.00
2019-02-03T08:10:28.862Z,39.73
2019-02-03T08:12:55.280Z,38.00
2019-02-03T08:15:23.795Z,37.17
2019-02-03T08:18:11.641Z,36.13
2019-02-03T08:20:40.411Z,38.47
2019-02-03T08:23:08.993Z,36.33
2019-02-03T08:25:56.871Z,38.10
2019-02-03T08:28:25.488Z,38.27
2019-02-03T08:30:53.943Z,37.70
2019-02-03T08:33:41.794Z,35.60
2019-02-03T08:36:11.295Z,36.60
2019-02-03T08:38:39.743Z,36.67
2019-02-03T08:41:08.248Z,35.27
2019-02-03T08:43:36.696Z,36.40
2019-02-03T08:46:05.679Z,38.50
2019-02-03T08:48:34.178Z,36.50
2019-02-03T08:51:02.712Z,35.80
2019-02-03T08:53:40.418Z,38.97
2019-02-03T08:56:10.035Z,36.07
2019-02-03T08:58:38.847Z,35.83
2019-02-03T09:01:16.352Z,34.40
2019-02-03T09:03:44.829Z,34.07
2019-02-03T09:06:13.292Z,34.10
2019-02-03T09:08:42.645Z,36.73
2019-02-03T09:11:11.579Z,32.47
2019-02-03T09:13:46.107Z,32.77
2019-02-03T09:16:14.551Z,33.80
2019-02-03T09:18:42.988Z,32.10
2019-02-03T09:21:11.442Z,32.03
2019-02-03T09:23:39.884Z,31.47
2019-02-03T09:26:08.799Z,31.13
2019-02-03T09:28:37.412Z,33.60
2019-02-03T09:31:06.004Z,31.73
2019-02-03T09:33:34.437Z,31.17
2019-02-03T09:36:03.048Z,28.93
2019-02-03T09:38:39.638Z,29.53
2019-02-03T09:41:08.299Z,28.63
2019-02-03T09:43:36.747Z,29.10
2019-02-03T09:46:06.387Z,29.10
2019-02-03T09:48:34.827Z,28.37
2019-02-03T09:51:03.295Z,26.07
2019-02-03T09:53:32.019Z,27.80
2019-02-03T09:56:19.896Z,23.83
2019-02-03T09:58:48.402Z,25.17
2019-02-03T10:01:16.860Z,26.10
2019-02-03T10:03:45.471Z,25.67
2019-02-03T10:06:13.908Z,25.83
2019-02-03T10:08:42.434Z,25.13
2019-02-03T10:11:12.274Z,24.50
2019-02-03T10:13:41.108Z,22.10
2019-02-03T10:16:09.621Z,21.50
2019-02-03T10:18:38.600Z,22.40
2019-02-03T10:21:07.030Z,23.07
2019-02-03T10:23:35.487Z,21.17
2019-02-03T10:26:04.482Z,20.73
2019-02-03T10:28:33.210Z,22.83
2019-02-03T10:31:01.670Z,20.03
2019-02-03T10:33:30.574Z,18.77
2019-02-03T10:35:59.158Z,20.20
2019-02-03T10:38:27.921Z,18.27
2019-02-03T10:40:56.467Z,18.60
2019-02-03T10:43:25.235Z,19.40
2019-02-03T10:45:53.726Z,18.97
2019-02-03T10:48:23.354Z,18.20
2019-02-03T10:50:51.857Z,16.50
2019-02-03T10:53:20.590Z,17.17
2019-02-03T10:55:49.113Z,16.80
2019-02-03T10:58:17.624Z,14.80
2019-02-03T11:00:46.166Z,15.87
2019-02-03T11:03:14.668Z,14.60
2019-02-03T11:05:46.234Z,14.80
2019-02-03T11:08:14.894Z,15.20
2019-02-03T11:10:44.463Z,13.77
2019-02-03T11:13:13.016Z,14.20
2019-02-03T11:15:41.697Z,13.03
2019-02-03T11:18:10.621Z,13.60
2019-02-03T11:20:39.320Z,12.40
2019-02-03T11:23:07.855Z,12.20
2019-02-03T11:25:36.492Z,11.20
2019-02-03T11:28:05.842Z,9.03
2019-02-03T11:30:34.711Z,9.80
2019-02-03T11:33:05.184Z,9.73
2019-02-03T11:35:34.522Z,7.47
2019-02-03T11:38:03.404Z,8.77
2019-02-03T11:40:37.123Z,8.23
2019-02-03T11:43:06.424Z,7.43
2019-02-03T11:45:37.506Z,7.57
2019-02-03T11:48:10.287Z,8.90
2019-02-03T11:50:43.180Z,7.83
2019-02-03T11:53:13.968Z,9.17
2019-02-03T11:55:42.513Z,7.40
2019-02-03T11:58:12.140Z,6.93
2019-02-03T12:00:52.691Z,16.30
2019-02-03T12:03:21.219Z,6.40
2019-02-03T12:05:49.817Z,6.20
2019-02-03T12:08:18.355Z,7.00
2019-02-03T12:10:47.864Z,7.23
2019-02-03T12:13:16.859Z,6.93
2019-02-03T12:15:47.927Z,6.70
2019-02-03T12:18:16.606Z,7.80
2019-02-03T12:20:45.200Z,7.23
2019-02-03T12:23:13.637Z,6.20
2019-02-03T12:25:43.730Z,7.00
2019-02-03T12:28:12.596Z,6.90
2019-02-03T12:30:41.210Z,6.33
2019-02-03T12:33:09.855Z,6.93
2019-02-03T12:35:38.468Z,6.87
2019-02-03T12:38:07.154Z,5.63
2019-02-03T12:40:39.148Z,5.43
2019-02-03T12:43:08.045Z,4.83
2019-02-03T12:45:37.032Z,4.73
2019-02-03T12:48:08.036Z,5.30
2019-02-03T12:50:36.839Z,4.97
2019-02-03T12:53:06.171Z,4.87
2019-02-03T12:55:34.924Z,4.30
2019-02-03T12:58:03.527Z,4.00
2019-02-03T13:00:36.847Z,3.40
2019-02-03T13:03:07.289Z,3.20
2019-02-03T13:05:39.374Z,4.10
2019-02-03T13:08:27.430Z,3.03
2019-02-03T13:10:56.026Z,2.93
2019-02-03T13:13:24.677Z,2.97
2019-02-03T13:15:53.344Z,2.90
2019-02-03T13:18:22.294Z,3.20
2019-02-03T13:20:50.803Z,2.93
2019-02-03T13:23:19.397Z,3.00
2019-02-03T13:25:48.083Z,3.37
2019-02-03T13:28:16.589Z,3.70
2019-02-03T13:30:47.627Z,2.90
2019-02-03T13:33:35.418Z,3.23
2019-02-03T13:36:07.179Z,3.13
2019-02-03T13:38:35.617Z,3.10
2019-02-03T13:41:05.619Z,2.63
2019-02-03T13:43:36.656Z,1.90
2019-02-03T13:46:11.343Z,2.70
2019-02-03T13:48:39.859Z,2.70
2019-02-03T13:51:09.025Z,2.73
2019-02-03T13:53:37.927Z,2.90
2019-02-03T13:56:07.488Z,4.33
2019-02-03T13:58:37.419Z,3.60
2019-02-03T14:01:06.225Z,4.53
2019-02-03T14:03:34.837Z,4.03
2019-02-03T14:06:03.565Z,5.20
2019-02-03T14:08:32.217Z,4.53
2019-02-03T14:11:00.906Z,4.80
2019-02-03T14:13:29.542Z,4.13
2019-02-03T14:16:01.308Z,3.70
2019-02-03T14:18:29.882Z,3.30
2019-02-03T14:21:01.380Z,3.20
2019-02-03T14:23:29.974Z,4.47
2019-02-03T14:26:04.971Z,3.83
2019-02-03T14:28:33.491Z,3.50
2019-02-03T14:31:02.006Z,3.07
2019-02-03T14:33:30.927Z,3.80
2019-02-03T14:35:59.485Z,3.10
2019-02-03T14:38:27.947Z,3.57
2019-02-03T14:40:56.533Z,3.00
2019-02-03T14:43:25.064Z,3.50
2019-02-03T14:45:53.495Z,3.10
2019-02-03T14:48:22.315Z,3.43
2019-02-03T14:50:50.825Z,3.53
2019-02-03T14:53:19.433Z,3.50
2019-02-03T14:55:47.874Z,3.20
2019-02-03T14:58:16.461Z,4.57
2019-02-03T15:00:47.323Z,3.97
2019-02-03T15:03:17.829Z,2.93
2019-02-03T15:05:46.540Z,3.20
2019-02-03T15:08:15.199Z,2.73
2019-02-03T15:10:43.776Z,2.63
2019-02-03T15:13:14.543Z,3.23
2019-02-03T15:15:42.695Z,2.60
2019-02-03T15:18:11.230Z,2.40
2019-02-03T15:20:39.804Z,5.90
2019-02-03T15:23:08.482Z,2.50
2019-02-03T15:25:37.220Z,3.27
2019-02-03T15:28:10.412Z,3.50
2019-02-03T15:30:40.827Z,2.70
2019-02-03T15:33:09.421Z,3.57
2019-02-03T15:35:38.098Z,3.23
2019-02-03T15:38:07.678Z,4.20
2019-02-03T15:40:36.284Z,2.80
2019-02-03T15:43:05.913Z,3.63
2019-02-03T15:45:34.574Z,2.67
2019-02-03T15:48:03.156Z,3.10
2019-02-03T15:50:32.664Z,3.27
2019-02-03T15:53:01.512Z,3.20
2019-02-03T15:55:35.117Z,3.60
2019-02-03T15:58:04.559Z,3.57
2019-02-03T16:00:39.768Z,2.80
2019-02-03T16:03:09.499Z,3.60
2019-02-03T16:05:38.202Z,3.43
2019-02-03T16:08:08.142Z,2.93
2019-02-03T16:10:36.614Z,3.20
2019-02-03T16:13:08.521Z,3.87
2019-02-03T16:15:37.112Z,3.20
2019-02-03T16:18:12.948Z,2.70
2019-02-03T16:20:41.852Z,3.27
2019-02-03T16:23:10.558Z,3.10
2019-02-03T16:25:39.095Z,3.30
2019-02-03T16:28:07.708Z,3.37
2019-02-03T16:30:38.593Z,3.33
2019-02-03T16:33:09.408Z,3.37
2019-02-03T16:35:38.295Z,3.20
2019-02-03T16:38:07.666Z,3.60
2019-02-03T16:40:36.295Z,3.10
2019-02-03T16:43:05.478Z,2.90
2019-02-03T16:45:34.672Z,2.87
2019-02-03T16:48:03.677Z,3.23
2019-02-03T16:50:32.700Z,2.70
2019-02-03T16:53:05.651Z,3.40
2019-02-03T16:55:34.162Z,3.10
2019-02-03T16:58:02.692Z,3.30
2019-02-03T17:00:31.809Z,3.57
2019-02-03T17:03:00.552Z,3.97
2019-02-03T17:05:30.629Z,2.80
2019-02-03T17:08:01.279Z,4.27
2019-02-03T17:10:29.840Z,3.77
2019-02-03T17:12:58.564Z,3.60
2019-02-03T17:15:29.584Z,3.83
2019-02-03T17:17:58.660Z,3.57
2019-02-03T17:20:27.249Z,4.03
2019-02-03T17:22:56.001Z,4.00
2019-02-03T17:25:33.753Z,4.20
2019-02-03T17:28:02.433Z,4.00
2019-02-03T17:30:31.430Z,4.30
2019-02-03T17:33:00.979Z,4.37
2019-02-03T17:35:29.888Z,4.60
2019-02-03T17:37:58.406Z,4.63
2019-02-03T17:40:27.088Z,4.00
2019-02-03T17:42:55.739Z,4.00
2019-02-03T17:45:26.053Z,4.13
2019-02-03T17:47:55.738Z,4.70
2019-02-03T17:50:31.838Z,4.20
2019-02-03T17:53:00.346Z,4.00
2019-02-03T17:55:29.081Z,4.47
2019-02-03T17:57:59.813Z,4.70
2019-02-03T18:00:32.060Z,4.23
2019-02-03T18:03:00.728Z,3.70
2019-02-03T18:05:29.303Z,4.57
2019-02-03T18:07:57.891Z,4.00
2019-02-03T18:10:26.477Z,4.80
2019-02-03T18:12:55.070Z,5.23
2019-02-03T18:15:23.593Z,4.03
2019-02-03T18:17:52.106Z,4.27
2019-02-03T18:20:26.054Z,4.20
2019-02-03T18:22:54.546Z,3.87
2019-02-03T18:25:23.467Z,4.43
2019-02-03T18:27:51.986Z,4.13
2019-02-03T18:30:22.952Z,4.37
2019-02-03T18:32:51.673Z,4.30
2019-02-03T18:35:20.119Z,3.77
2019-02-03T18:37:48.636Z,4.53
2019-02-03T18:40:20.085Z,4.27
2019-02-03T18:42:48.962Z,4.13
2019-02-03T18:45:20.281Z,4.70
2019-02-03T18:47:48.849Z,4.67
2019-02-03T18:50:24.405Z,5.20
2019-02-03T18:52:53.629Z,5.77
2019-02-03T18:55:37.140Z,6.50
2019-02-03T18:58:06.331Z,5.97
2019-02-03T19:00:36.969Z,6.10
2019-02-03T19:03:07.418Z,5.70
2019-02-03T19:05:39.076Z,5.57
2019-02-03T19:08:07.633Z,5.77
2019-02-03T19:10:36.193Z,5.77
2019-02-03T19:13:05.778Z,4.70
2019-02-03T19:15:35.626Z,5.40
2019-02-03T19:18:04.884Z,4.83
2019-02-03T19:20:44.285Z,4.30
2019-02-03T19:23:13.871Z,4.80
2019-02-03T19:25:43.498Z,4.60
2019-02-03T19:28:12.312Z,4.67
2019-02-03T19:30:40.897Z,5.43
2019-02-03T19:33:09.517Z,5.40
2019-02-03T19:35:38.091Z,6.00
2019-02-03T19:38:07.579Z,6.30
2019-02-03T19:40:39.480Z,6.27
2019-02-03T19:43:08.983Z,6.23
2019-02-03T19:45:43.550Z,6.25
2019-02-03T19:48:12.279Z,6.10
2019-02-03T19:50:42.436Z,6.20
2019-02-03T19:53:12.290Z,6.37
2019-02-03T19:55:41.304Z,5.30
2019-02-03T19:58:10.110Z,6.13
2019-02-03T20:00:43.730Z,7.43
2019-02-03T20:03:12.329Z,5.43
2019-02-03T20:05:42.892Z,5.90
2019-02-03T20:08:11.409Z,5.50
2019-02-03T20:10:40.073Z,6.85
2019-02-03T20:13:08.656Z,6.80
2019-02-03T20:15:37.285Z,5.30
2019-02-03T20:29:38.907Z,5.20
2019-02-03T20:32:07.432Z,5.85
2019-02-03T20:34:36.193Z,6.60
2019-02-03T20:37:05.086Z,6.00
2019-02-03T20:39:33.754Z,6.00
2019-02-03T20:42:02.372Z,6.40
2019-02-03T20:44:30.802Z,6.67
2019-02-03T20:47:01.283Z,6.33
2019-02-03T20:49:31.172Z,6.13
2019-02-03T20:51:59.706Z,6.10
2019-02-03T20:54:28.211Z,5.60
2019-02-03T20:56:58.271Z,6.30
2019-02-03T20:59:26.788Z,6.13
2019-02-03T21:01:55.270Z,9.90
2019-02-03T21:04:24.083Z,8.60
2019-02-03T21:06:52.776Z,6.73
2019-02-03T21:09:21.331Z,6.95
2019-02-03T21:11:51.416Z,6.80
2019-02-03T21:14:19.919Z,5.70
2019-02-03T21:16:48.447Z,6.57
2019-02-03T21:19:17.328Z,7.42
2019-02-03T21:21:45.994Z,6.37
2019-02-03T21:24:14.622Z,6.83
2019-02-03T21:26:43.149Z,6.60
2019-02-03T21:29:14.531Z,7.60
2019-02-03T21:31:42.995Z,6.90
2019-02-03T21:34:11.841Z,6.33
2019-02-03T21:36:40.303Z,6.90
2019-02-03T21:39:09.199Z,7.00
2019-02-03T21:41:37.898Z,5.90
2019-02-03T21:44:06.424Z,7.30
2019-02-03T21:46:34.939Z,7.22
2019-02-03T21:49:03.671Z,7.17
2019-02-03T21:51:32.148Z,6.70
2019-02-03T21:54:00.616Z,6.80
2019-02-03T21:56:29.211Z,7.43
2019-02-03T21:58:57.766Z,7.17
2019-02-03T22:01:26.253Z,6.57
2019-02-03T22:03:54.975Z,7.87
2019-02-03T22:06:23.456Z,7.97
2019-02-03T22:08:51.926Z,6.70
2019-02-03T22:11:20.415Z,7.63
2019-02-03T22:13:48.895Z,7.95
2019-02-03T22:16:17.398Z,7.73
2019-02-03T22:18:46.164Z,8.10
2019-02-03T22:21:14.604Z,8.30
2019-02-03T22:23:43.070Z,7.50
2019-02-03T22:26:12.005Z,7.60
2019-02-03T22:28:40.532Z,7.73
2019-02-03T22:31:08.985Z,7.73
2019-02-03T22:33:37.584Z,8.30
2019-02-03T22:36:14.972Z,9.57
2019-02-03T22:38:43.575Z,8.83
2019-02-03T22:41:12.153Z,8.87
2019-02-03T22:43:43.925Z,9.60
2019-02-03T22:46:12.361Z,9.67
2019-02-03T22:48:40.890Z,8.90
2019-02-03T22:51:09.395Z,8.60
2019-02-03T22:53:37.838Z,9.70
2019-02-03T22:56:06.871Z,7.87
2019-02-03T22:58:35.587Z,9.23
2019-02-03T23:01:07.189Z,9.50
2019-02-03T23:03:41.590Z,9.10
2019-02-03T23:06:10.410Z,8.80
2019-02-03T23:08:38.855Z,9.87
2019-02-03T23:11:07.511Z,8.87
2019-02-03T23:13:36.291Z,10.20
2019-02-03T23:16:05.291Z,9.67
2019-02-03T23:18:33.867Z,8.77
2019-02-03T23:21:03.439Z,9.87
2019-02-03T23:23:32.013Z,9.77
2019-02-03T23:26:01.500Z,10.73
2019-02-03T23:28:29.934Z,10.17
2019-02-03T23:30:58.411Z,10.33
2019-02-03T23:33:26.862Z,11.50
2019-02-03T23:35:55.384Z,10.90
2019-02-03T23:38:23.883Z,12.17
2019-02-03T23:40:52.407Z,11.23
2019-02-03T23:43:20.926Z,11.50
2019-02-03T23:45:49.379Z,10.50
2019-02-03T23:48:17.810Z,11.83
2019-02-03T23:50:46.264Z,11.33
2019-02-03T23:53:14.693Z,12.37
2019-02-03T23:55:43.144Z,12.50
2019-02-03T23:58:11.792Z,12.50
